createdAt,value
2022-11-05T00:03:56.332Z,6.07
2022-11-05T00:09:16.869Z,5.10
2022-11-05T00:14:36.995Z,5.00
2022-11-05T00:19:38.632Z,5.10
2022-11-05T00:24:58.585Z,4.53
2022-11-05T00:30:00.242Z,4.40
2022-11-05T00:35:01.896Z,4.33
2022-11-05T00:40:05.399Z,4.53
2022-11-05T00:45:07.938Z,4.23
2022-11-05T00:50:10.768Z,5.77
2022-11-05T00:55:12.593Z,4.80
2022-11-05T01:00:15.184Z,4.33
2022-11-05T01:05:16.999Z,5.50
2022-11-05T01:10:19.344Z,4.40
2022-11-05T01:15:22.082Z,4.30
2022-11-05T01:20:24.025Z,6.47
2022-11-05T01:25:26.613Z,5.43
2022-11-05T01:30:28.368Z,4.93
2022-11-05T01:35:30.065Z,5.20
2022-11-05T01:40:31.743Z,5.60
2022-11-05T01:45:34.761Z,5.03
2022-11-05T01:50:49.320Z,5.20
2022-11-05T01:56:04.923Z,4.90
2022-11-05T02:01:06.718Z,4.53
2022-11-05T02:06:09.490Z,4.30
2022-11-05T02:11:17.204Z,5.87
2022-11-05T02:16:51.209Z,4.90
2022-11-05T02:22:52.284Z,4.90
2022-11-05T02:28:43.870Z,6.10
2022-11-05T02:34:36.937Z,4.93
2022-11-05T02:40:28.458Z,4.80
2022-11-05T02:46:12.133Z,4.97
2022-11-05T02:51:38.927Z,5.30
2022-11-05T02:56:48.597Z,4.80
2022-11-05T03:01:52.575Z,4.43
2022-11-05T03:07:22.198Z,5.33
2022-11-05T03:13:22.056Z,5.67
2022-11-05T03:18:42.848Z,4.50
2022-11-05T03:24:10.440Z,5.20
2022-11-05T03:29:26.278Z,4.70
2022-11-05T03:34:43.344Z,5.40
2022-11-05T03:39:56.371Z,5.83
2022-11-05T03:45:05.448Z,5.70
2022-11-05T03:50:18.873Z,5.60
2022-11-05T03:55:35.114Z,4.83
2022-11-05T04:00:37.829Z,4.97
2022-11-05T04:05:40.116Z,4.67
2022-11-05T04:11:00.810Z,4.67
2022-11-05T04:16:21.231Z,4.40
2022-11-05T04:21:41.289Z,4.40
2022-11-05T04:26:44.242Z,4.07
2022-11-05T04:31:45.893Z,5.77
2022-11-05T04:36:52.457Z,4.23
2022-11-05T04:41:54.181Z,4.80
2022-11-05T04:46:55.844Z,4.60
2022-11-05T04:51:57.507Z,4.63
2022-11-05T04:56:59.163Z,4.90
2022-11-05T05:02:00.881Z,5.13
2022-11-05T05:07:02.569Z,5.13
2022-11-05T05:12:04.392Z,4.70
2022-11-05T05:17:06.114Z,4.10
2022-11-05T05:22:07.752Z,4.80
2022-11-05T05:27:09.588Z,5.10
2022-11-05T05:32:11.286Z,4.80
2022-11-05T05:37:13.041Z,4.40
2022-11-05T05:42:15.465Z,5.17
2022-11-05T05:47:17.140Z,4.83
2022-11-05T05:52:19.141Z,5.77
2022-11-05T05:57:20.839Z,6.60
2022-11-05T06:02:23.004Z,5.23
2022-11-05T06:07:24.911Z,4.77
2022-11-05T06:12:29.731Z,4.43
2022-11-05T06:17:33.223Z,4.50
2022-11-05T06:22:34.880Z,4.97
2022-11-05T06:27:37.438Z,3.60
2022-11-05T06:32:39.088Z,3.87
2022-11-05T06:37:40.717Z,4.27
2022-11-05T06:42:42.389Z,3.97
2022-11-05T06:47:44.027Z,4.40
2022-11-05T06:52:52.147Z,3.80
2022-11-05T06:57:54.107Z,2.90
2022-11-05T07:02:56.821Z,5.63
2022-11-05T07:07:58.681Z,4.83
2022-11-05T07:13:05.042Z,4.17
2022-11-05T07:18:09.356Z,2.63
2022-11-05T07:23:14.656Z,3.57
2022-11-05T07:28:19.454Z,4.97
2022-11-05T07:33:21.139Z,3.73
2022-11-05T07:38:23.005Z,3.67
2022-11-05T07:43:24.681Z,5.37
2022-11-05T07:48:26.448Z,4.43
2022-11-05T07:53:28.188Z,4.00
2022-11-05T07:58:29.857Z,4.10
2022-11-05T08:03:31.763Z,3.67
2022-11-05T08:08:33.819Z,4.10
2022-11-05T08:13:37.191Z,4.87
2022-11-05T08:18:41.388Z,5.80
2022-11-05T08:23:43.718Z,4.40
2022-11-05T08:28:45.593Z,3.67
2022-11-05T08:33:47.271Z,4.83
2022-11-05T08:38:48.971Z,4.40
2022-11-05T08:43:52.082Z,3.50
2022-11-05T08:48:54.051Z,4.97
2022-11-05T08:53:56.013Z,3.63
2022-11-05T08:58:57.674Z,3.70
2022-11-05T09:03:59.737Z,3.43
2022-11-05T09:09:02.612Z,4.70
2022-11-05T09:14:04.258Z,2.87
2022-11-05T09:19:05.972Z,3.10
2022-11-05T09:24:08.267Z,4.63
2022-11-05T09:29:14.250Z,2.50
2022-11-05T09:34:16.435Z,2.93
2022-11-05T09:39:18.123Z,2.87
2022-11-05T09:44:37.791Z,3.10
2022-11-05T09:49:54.636Z,3.17
2022-11-05T09:54:57.838Z,2.87
2022-11-05T10:00:06.426Z,2.00
2022-11-05T10:05:13.534Z,2.77
2022-11-05T10:10:39.411Z,2.17
2022-11-05T10:16:12.294Z,3.40
2022-11-05T10:21:37.672Z,2.17
2022-11-05T10:26:43.553Z,2.37
2022-11-05T10:31:45.269Z,1.63
2022-11-05T10:36:47.104Z,1.33
2022-11-05T10:42:15.468Z,1.50
2022-11-05T10:47:45.160Z,2.20
2022-11-05T10:53:00.478Z,2.20
2022-11-05T10:58:32.597Z,2.30
2022-11-05T11:03:52.927Z,2.93
2022-11-05T11:09:00.620Z,2.03
2022-11-05T11:14:22.174Z,1.20
2022-11-05T11:19:33.764Z,1.30
2022-11-05T11:24:45.530Z,1.37
2022-11-05T11:30:00.492Z,1.73
2022-11-05T11:35:04.402Z,1.40
2022-11-05T11:40:20.571Z,1.40
2022-11-05T11:45:38.797Z,1.40
2022-11-05T11:50:45.846Z,1.40
2022-11-05T11:56:18.121Z,1.83
2022-11-05T12:02:10.493Z,1.60
2022-11-05T12:07:57.945Z,1.50
2022-11-05T12:13:21.299Z,1.70
2022-11-05T12:18:57.160Z,1.33
2022-11-05T12:24:39.129Z,1.40
2022-11-05T12:30:04.883Z,1.00
2022-11-05T12:35:44.166Z,1.80
2022-11-05T12:41:16.170Z,1.47
2022-11-05T12:46:35.059Z,1.17
2022-11-05T12:51:59.783Z,1.00
2022-11-05T12:57:04.284Z,1.37
2022-11-05T13:03:14.072Z,1.37
2022-11-05T13:08:53.183Z,1.20
2022-11-05T13:14:21.510Z,1.27
2022-11-05T13:19:57.183Z,1.23
2022-11-05T13:25:21.337Z,2.03
2022-11-05T13:30:37.209Z,1.77
2022-11-05T13:36:16.699Z,1.90
2022-11-05T13:42:33.705Z,1.20
2022-11-05T13:48:22.371Z,1.47
2022-11-05T13:54:20.303Z,1.40
2022-11-05T14:00:16.923Z,1.70
2022-11-05T14:05:36.542Z,1.33
2022-11-05T14:10:45.832Z,1.60
2022-11-05T14:16:25.958Z,1.50
2022-11-05T14:21:27.599Z,1.80
2022-11-05T14:26:33.123Z,1.53
2022-11-05T14:32:07.935Z,1.73
2022-11-05T14:37:11.307Z,2.13
2022-11-05T14:42:27.464Z,1.40
2022-11-05T14:47:50.763Z,1.40
2022-11-05T14:52:57.249Z,1.50
2022-11-05T14:57:58.778Z,1.60
2022-11-05T15:03:24.956Z,2.80
2022-11-05T15:09:07.110Z,1.83
2022-11-05T15:14:28.633Z,1.70
2022-11-05T15:19:36.896Z,1.30
2022-11-05T15:24:42.783Z,1.33
2022-11-05T15:29:44.492Z,1.30
2022-11-05T15:34:55.596Z,1.10
2022-11-05T15:39:57.311Z,1.70
2022-11-05T15:45:00.280Z,1.30
2022-11-05T15:50:15.931Z,1.40
2022-11-05T15:55:25.149Z,1.50
2022-11-05T16:00:33.062Z,1.67
2022-11-05T16:05:43.827Z,0.80
2022-11-05T16:10:57.451Z,1.50
2022-11-05T16:16:33.325Z,2.20
2022-11-05T16:21:54.658Z,1.57
2022-11-05T16:27:03.071Z,1.90
2022-11-05T16:32:25.431Z,1.90
2022-11-05T16:37:40.927Z,1.47
2022-11-05T16:42:43.499Z,2.50
2022-11-05T16:47:49.906Z,2.00
2022-11-05T16:52:52.778Z,1.80
2022-11-05T16:57:55.739Z,1.80
2022-11-05T17:02:57.518Z,1.90
2022-11-05T17:08:01.130Z,1.60
2022-11-05T17:13:02.928Z,1.67
2022-11-05T17:18:05.790Z,2.37
2022-11-05T17:23:15.209Z,2.57
2022-11-05T17:28:19.140Z,2.10
2022-11-05T17:33:23.443Z,1.70
2022-11-05T17:38:26.968Z,2.27
2022-11-05T17:43:28.657Z,2.07
2022-11-05T17:48:30.488Z,2.27
2022-11-05T17:53:32.136Z,2.20
2022-11-05T17:58:33.946Z,2.10
2022-11-05T18:03:35.639Z,2.60
2022-11-05T18:08:37.291Z,2.70
2022-11-05T18:13:38.999Z,2.30
2022-11-05T18:18:40.772Z,2.77
2022-11-05T18:23:42.802Z,2.83
2022-11-05T18:28:45.009Z,2.97
2022-11-05T18:33:49.733Z,2.57
2022-11-05T18:38:51.896Z,2.63
2022-11-05T18:43:57.542Z,2.83
2022-11-05T18:49:00.384Z,3.00
2022-11-05T18:54:02.098Z,4.40
2022-11-05T18:59:34.541Z,3.70
2022-11-05T19:04:26.256Z,4.33
2022-11-05T19:09:27.960Z,4.03
2022-11-05T19:14:30.218Z,4.30
2022-11-05T19:19:32.123Z,4.77
2022-11-05T19:24:33.911Z,3.97
2022-11-05T19:29:35.617Z,3.50
2022-11-05T19:34:37.469Z,4.00
2022-11-05T19:39:40.431Z,3.27
2022-11-05T19:44:43.061Z,3.90
2022-11-05T19:49:44.694Z,4.40
2022-11-05T19:54:46.520Z,4.63
2022-11-05T19:59:48.245Z,4.20
2022-11-05T20:04:50.663Z,5.63
2022-11-05T20:09:52.335Z,5.80
2022-11-05T20:14:56.552Z,5.63
2022-11-05T20:19:59.280Z,6.50
2022-11-05T20:25:02.552Z,6.00
2022-11-05T20:30:06.520Z,6.40
2022-11-05T20:35:09.247Z,9.83
2022-11-05T20:40:14.012Z,6.20
2022-11-05T20:45:15.942Z,6.83
2022-11-05T20:50:18.222Z,7.00
2022-11-05T20:55:19.938Z,6.50
2022-11-05T21:00:21.837Z,7.27
2022-11-05T21:05:23.491Z,6.47
2022-11-05T21:10:25.587Z,6.53
2022-11-05T21:15:27.231Z,6.87
2022-11-05T21:20:29.198Z,6.37
2022-11-05T21:25:30.948Z,6.33
2022-11-05T21:30:36.076Z,5.80
2022-11-05T21:35:45.300Z,5.00
2022-11-05T21:40:48.170Z,5.60
2022-11-05T21:45:49.879Z,6.10
2022-11-05T21:51:11.343Z,6.80
2022-11-05T21:56:43.836Z,5.17
2022-11-05T22:01:45.610Z,4.30
2022-11-05T22:06:47.420Z,4.80
2022-11-05T22:11:49.112Z,4.30
2022-11-05T22:16:58.870Z,4.87
2022-11-05T22:22:01.875Z,4.87
2022-11-05T22:27:17.750Z,6.90
2022-11-05T22:32:19.648Z,7.07
2022-11-05T22:37:26.010Z,5.90
2022-11-05T22:42:27.975Z,6.23
2022-11-05T22:47:29.713Z,6.80
2022-11-05T22:52:32.652Z,6.90
2022-11-05T22:57:34.524Z,5.70
2022-11-05T23:02:36.343Z,6.40
2022-11-05T23:07:57.438Z,7.10
2022-11-05T23:12:59.054Z,5.30
2022-11-05T23:18:19.752Z,5.70
2022-11-05T23:23:39.803Z,5.53
2022-11-05T23:28:41.475Z,5.30
2022-11-05T23:33:43.157Z,4.17
2022-11-05T23:38:44.946Z,4.57
2022-11-05T23:44:05.453Z,4.60
2022-11-05T23:49:07.152Z,4.40
2022-11-05T23:54:08.850Z,4.03
2022-11-05T23:59:10.555Z,3.10
